CYCX

CFB Gagetown Heliport

Gagetown, New Brunswick, Canada
METAR CYCX 182000Z 17003KT 140V210 15SM FEW067 OVC084 M10/M18 A3005 RMK AC1AC8 DA-3057FT SLP180
Observed Flight Rules
Dec-18 @ 20:00 UTC (29 minutes ago) Visual Flight Rules
Wind Visibility Clouds
170° at 3 knots 15 miles
  • Few at 6,700' AGL
  • Overcast at 8,400' AGL
Temperatures Readings
Current -10°C / 14°F
Dewpoint -18°C / -0°F
Humidity 52%
Altimeter 30.05" Hg
Pressure 1018 hPa
Elevation 51
METAR CYCX 182000Z 17003KT 140V210 15SM FEW067 OVC084 M10/M18 A3005 RMK AC1AC8 DA-3057FT SLP180
Observed Flight Rules
Dec-18 @ 20:00 UTC
(29 minutes ago)
VFR
Wind Visibility
170° at 3 knots 15 miles
Clouds
  • Few at 6,700' AGL
  • Overcast at 8,400' AGL
Temperature Dewpoint
-10°C / 14°F -18°C / -0°F
Humidity Altimeter Pressure
52% 30.05" Hg 1018 hPa